石垣島, 日本

2015年5月23日 22時19分 (GMT +0900)
Ishigaki | | Change Station
CLOSE
Current Station
機場
Location: Ishigakijima,
海拔: 23 ft
附近的氣象站

海拔 23 ft 24.34 °N, 124.16 °E | Updated 2 hours ago

Light Rain
微雨
77 °F
感覺像 77 °F
5
風 變化 風 來自 西南

今日
高 -- | 低 -- °F
--% 降水機率
昨天
高 -- | 低 -- °F
Precip. -- 英寸
5:57 AM 7:23 PM
眉月, 30% visible
氣壓 29.71 英寸
能見度 6.2 英里
多雲 少數 800 ft
多雲時晴 1500 ft
多雲 5000 ft
露點 77 °F
濕度 100%
降雨量 0.00 英寸
積雪深度 不適用。
紫外線 0 / 12
花粉 不適用。
空氣質素 不適用。
Flu Activity 不適用。
METAR ROIG 231100Z 23004KT 9999 -RA FEW008 SCT015 BKN050 25/25 Q1006

More Conditions Fewer Conditions

氣壓 29.71 英寸
能見度 6.2 英里
多雲 少數 800 ft
多雲時晴 1500 ft
多雲 5000 ft
露點 77 °F
濕度 100%
降雨量 0.00 英寸
積雪深度 不適用。
紫外線 0 / 12
花粉 不適用。
空氣質素 不適用。
Flu Activity 不適用。
METAR ROIG 231100Z 23004KT 9999 -RA FEW008 SCT015 BKN050 25/25 Q1006

More Conditions Fewer Conditions

10-Day Weather Forecast

Almanac

天文

May. 23, 2015 昇起 降落
實際時間
民用曙暮光
航海曙暮光
天文學微明
月亮
可見光的長度
白晝時間
Tomorrow will be .
, % of the Moon is Illuminated

今天之最

國家高溫 國家低溫

Community

WunderPhotos

Upload Photos

1,823,453 照片已上傳!

WunderBlogs® & News

Nearby

空氣質素

  空氣質素 空氣質素指數 污染物
Not available.

積雪量

Station 深度 海拔

地震活動

城市 距離 時間和日期
顯示的最小幅度是2.5。

沿海水溫

地點 溫度

Stations

附近的氣象站

氣象站位置 溫度 風寒指數 露點 濕度 Precip. 海拔 最近更新時間 類型